Time;durP1;ratioP1;P1;durP2;ratioP2;P2;SDS_P1;SDS_P2;PMS_P1;PMS_P2;Temp;Humidity;BMP_temperature;BMP_pressure;BME280_temperature;BME280_humidity;BME280_pressure;Samples;Min_cycle;Max_cycle;Signal;HPM_P1;HPM_P2
2022/12/01 00:02:17;;;;;;;10.23;2.70;;;;;;;;;;1693035;82;22006;-53
2022/12/01 00:04:43;;;;;;;8.37;3.30;;;;;;;;;;1691641;82;21077;-53
2022/12/01 00:07:09;;;;;;;10.80;3.27;;;;;;;;;;1693535;82;21072;-53
2022/12/01 00:12:20;;;;;;;9.50;3.00;;;;;;;;;;1691085;82;21078;-54
2022/12/01 00:14:53;;;;;;;7.77;2.87;;;;;;;;;;1693057;82;23065;-53
2022/12/01 00:17:15;;;;;;;6.77;3.00;;;;;;;;;;1690352;82;21105;-53
2022/12/01 00:19:41;;;;;;;7.63;2.40;;;;;;;;;;1695953;82;21097;-53
2022/12/01 00:22:08;;;;;;;6.93;2.60;;;;;;;;;;1690104;82;22116;-53
2022/12/01 00:24:34;;;;;;;5.83;2.40;;;;;;;;;;1689886;82;21042;-53
2022/12/01 00:27:00;;;;;;;6.33;1.80;;;;;;;;;;1695695;82;23076;-54
2022/12/01 00:29:26;;;;;;;6.83;2.10;;;;;;;;;;1692232;82;21610;-53
2022/12/01 00:31:53;;;;;;;6.30;2.33;;;;;;;;;;1687762;82;21069;-53
2022/12/01 00:34:22;;;;;;;4.00;1.73;;;;;;;;;;1694391;82;21024;-53
2022/12/01 00:36:48;;;;;;;7.43;2.17;;;;;;;;;;1693864;82;21077;-53
2022/12/01 00:39:14;;;;;;;6.87;2.10;;;;;;;;;;1693809;82;21963;-53
2022/12/01 00:41:41;;;;;;;5.13;1.83;;;;;;;;;;1690116;82;21058;-53
2022/12/01 00:44:07;;;;;;;7.73;2.20;;;;;;;;;;1691809;82;21659;-53
2022/12/01 00:46:33;;;;;;;10.80;2.77;;;;;;;;;;1689778;82;20993;-54
2022/12/01 00:48:59;;;;;;;6.43;2.63;;;;;;;;;;1689649;82;21511;-53
2022/12/01 00:51:26;;;;;;;7.03;1.73;;;;;;;;;;1695829;82;21714;-53
2022/12/01 00:53:52;;;;;;;10.70;2.43;;;;;;;;;;1691623;82;21745;-53
2022/12/01 00:56:19;;;;;;;8.63;2.17;;;;;;;;;;1689883;82;21110;-53
2022/12/01 00:58:46;;;;;;;8.10;2.60;;;;;;;;;;1696356;82;21038;-53
2022/12/01 01:01:12;;;;;;;6.77;2.00;;;;;;;;;;1694233;82;21081;-53
2022/12/01 01:03:38;;;;;;;7.73;2.17;;;;;;;;;;1693522;82;21748;-53
2022/12/01 01:06:07;;;;;;;8.63;1.97;;;;;;;;;;1692425;82;21063;-53
2022/12/01 01:08:33;;;;;;;8.73;3.37;;;;;;;;;;1688123;82;21096;-53
2022/12/01 01:11:00;;;;;;;10.87;3.43;;;;;;;;;;1691801;82;21591;-53
2022/12/01 01:13:26;;;;;;;9.17;2.23;;;;;;;;;;1694124;82;21446;-52
2022/12/01 01:16:01;;;;;;;7.27;2.23;;;;;;;;;;1690312;82;21908;-52
2022/12/01 01:18:27;;;;;;;7.93;1.63;;;;;;;;;;1693191;82;21045;-53
2022/12/01 01:20:57;;;;;;;7.77;2.33;;;;;;;;;;1689933;82;21059;-52
2022/12/01 01:23:24;;;;;;;8.10;1.77;;;;;;;;;;1693602;82;21081;-52
2022/12/01 01:25:50;;;;;;;11.00;2.13;;;;;;;;;;1686965;82;21105;-52
2022/12/01 01:28:17;;;;;;;7.50;1.93;;;;;;;;;;1693229;82;21842;-52
2022/12/01 01:30:43;;;;;;;10.30;1.80;;;;;;;;;;1691646;82;21004;-53
2022/12/01 01:33:10;;;;;;;12.80;3.17;;;;;;;;;;1688987;82;21085;-52
2022/12/01 01:35:36;;;;;;;9.07;3.33;;;;;;;;;;1693035;82;21073;-52
2022/12/01 01:38:02;;;;;;;11.23;2.63;;;;;;;;;;1689356;82;21074;-53
2022/12/01 01:40:28;;;;;;;10.83;2.43;;;;;;;;;;1694268;82;22305;-52
2022/12/01 01:42:54;;;;;;;8.60;1.97;;;;;;;;;;1695949;82;21054;-52
2022/12/01 01:45:22;;;;;;;5.60;1.60;;;;;;;;;;1688938;82;21097;-52
2022/12/01 01:47:49;;;;;;;3.10;1.30;;;;;;;;;;1691965;82;21361;-52
2022/12/01 01:50:15;;;;;;;5.40;1.60;;;;;;;;;;1689886;82;21626;-53
2022/12/01 01:52:44;;;;;;;9.13;1.67;;;;;;;;;;1691756;82;21844;-52
2022/12/01 01:55:11;;;;;;;2.27;1.20;;;;;;;;;;1693607;82;21591;-52
2022/12/01 01:57:37;;;;;;;2.67;1.23;;;;;;;;;;1695545;82;21499;-52
2022/12/01 02:00:07;;;;;;;5.83;1.70;;;;;;;;;;1693289;82;21174;-52
2022/12/01 02:02:39;;;;;;;2.93;1.20;;;;;;;;;;1695887;82;21156;-52
2022/12/01 02:05:09;;;;;;;4.67;1.50;;;;;;;;;;1688925;82;21969;-52
2022/12/01 02:07:32;;;;;;;3.60;1.27;;;;;;;;;;1675714;82;21116;-52
2022/12/01 02:09:58;;;;;;;3.23;0.93;;;;;;;;;;1692466;82;21049;-52
2022/12/01 02:12:47;;;;;;;3.27;1.23;;;;;;;;;;1701653;82;21125;-52
2022/12/01 02:15:20;;;;;;;5.20;1.33;;;;;;;;;;1699848;82;21105;-52
2022/12/01 02:17:56;;;;;;;4.60;1.37;;;;;;;;;;1699626;82;21884;-52
2022/12/01 02:20:47;;;;;;;6.90;1.73;;;;;;;;;;1695544;82;21033;-52
2022/12/01 02:23:31;;;;;;;10.23;3.40;;;;;;;;;;1661379;84;21626;-52
2022/12/01 02:26:07;;;;;;;9.50;3.63;;;;;;;;;;1707063;82;21444;-51
2022/12/01 02:29:01;;;;;;;10.67;3.03;;;;;;;;;;1696753;82;21065;-51
2022/12/01 02:31:41;;;;;;;6.80;1.70;;;;;;;;;;1658120;84;21879;-51
2022/12/01 02:34:20;;;;;;;4.63;1.33;;;;;;;;;;1692730;82;21049;-51
2022/12/01 02:36:50;;;;;;;5.80;1.07;;;;;;;;;;1699700;81;21061;-51
2022/12/01 02:39:23;;;;;;;5.47;1.60;;;;;;;;;;1698174;82;21255;-51
2022/12/01 02:41:51;;;;;;;5.47;0.97;;;;;;;;;;1704837;82;21065;-51
2022/12/01 02:45:49;;;;;;;3.07;1.00;;;;;;;;;;1797625;78;27410;-53
2022/12/01 02:48:21;;;;;;;2.63;1.00;;;;;;;;;;1778072;79;21026;-52
2022/12/01 02:50:47;;;;;;;2.37;0.90;;;;;;;;;;1776291;79;21927;-52
2022/12/01 02:53:16;;;;;;;3.40;1.00;;;;;;;;;;1776495;79;21578;-52
2022/12/01 02:55:49;;;;;;;4.30;1.07;;;;;;;;;;1775852;79;21071;-53
2022/12/01 02:58:16;;;;;;;5.47;0.87;;;;;;;;;;1768834;79;21460;-51
2022/12/01 03:00:48;;;;;;;4.87;1.10;;;;;;;;;;1778878;79;21646;-51
2022/12/01 03:03:24;;;;;;;6.73;1.43;;;;;;;;;;1725991;79;21775;-51
2022/12/01 03:08:12;;;;;;;7.30;2.90;;;;;;;;;;1792760;78;27356;-51
2022/12/01 03:10:41;;;;;;;5.73;1.90;;;;;;;;;;1774660;79;21550;-51
2022/12/01 03:13:38;;;;;;;4.67;1.10;;;;;;;;;;1772889;79;21857;-51
2022/12/01 03:16:16;;;;;;;3.30;1.00;;;;;;;;;;1771753;79;21084;-50
2022/12/01 03:18:52;;;;;;;3.43;1.20;;;;;;;;;;1758087;79;21384;-51
2022/12/01 03:21:34;;;;;;;2.53;1.00;;;;;;;;;;1778876;79;21780;-52
2022/12/01 03:24:03;;;;;;;3.27;1.00;;;;;;;;;;1776221;79;21135;-52
2022/12/01 03:26:30;;;;;;;1.97;0.80;;;;;;;;;;1773990;79;21808;-52
2022/12/01 03:29:02;;;;;;;2.03;0.90;;;;;;;;;;1780891;79;21452;-51
2022/12/01 03:31:33;;;;;;;2.07;1.00;;;;;;;;;;1780881;78;21080;-52
2022/12/01 03:34:03;;;;;;;3.93;1.20;;;;;;;;;;1784947;79;21042;-51
2022/12/01 03:36:35;;;;;;;8.07;1.00;;;;;;;;;;1780773;78;21506;-52
2022/12/01 03:39:04;;;;;;;5.53;0.80;;;;;;;;;;1784702;78;21827;-52
2022/12/01 03:41:36;;;;;;;2.70;0.90;;;;;;;;;;1783124;79;21026;-52
2022/12/01 03:44:08;;;;;;;3.47;0.80;;;;;;;;;;1783844;79;21034;-52
2022/12/01 03:46:44;;;;;;;2.50;0.90;;;;;;;;;;1782517;79;21115;-52
2022/12/01 03:49:10;;;;;;;6.37;0.80;;;;;;;;;;1781749;78;21505;-52
2022/12/01 03:51:46;;;;;;;3.63;0.80;;;;;;;;;;1781060;79;21876;-51
2022/12/01 03:54:18;;;;;;;2.30;0.80;;;;;;;;;;1779189;79;21132;-51
2022/12/01 03:56:47;;;;;;;4.93;0.77;;;;;;;;;;1753801;79;21076;-51
2022/12/01 03:59:13;;;;;;;7.50;0.93;;;;;;;;;;1783717;78;21036;-51
2022/12/01 04:01:40;;;;;;;1.93;0.80;;;;;;;;;;1780293;78;21088;-51
2022/12/01 04:04:07;;;;;;;3.40;0.90;;;;;;;;;;1783822;78;21378;-51
2022/12/01 04:06:34;;;;;;;6.20;1.07;;;;;;;;;;1778337;79;21026;-51
2022/12/01 04:09:00;;;;;;;3.77;0.80;;;;;;;;;;1772142;79;21074;-51
2022/12/01 04:14:12;;;;;;;;;;;;;;;;;;1771226;79;21026;-51
2022/12/01 04:16:39;;;;;;;6.10;0.83;;;;;;;;;;1771556;79;20494;-51
2022/12/01 04:19:06;;;;;;;3.77;1.00;;;;;;;;;;1771987;79;21022;-51
2022/12/01 04:21:32;;;;;;;8.50;1.40;;;;;;;;;;1767582;79;21350;-51
2022/12/01 04:23:59;;;;;;;4.47;1.03;;;;;;;;;;1771839;79;21471;-51
2022/12/01 04:26:26;;;;;;;2.47;0.80;;;;;;;;;;1767267;79;21092;-51
2022/12/01 04:28:52;;;;;;;2.67;0.90;;;;;;;;;;1772076;79;21837;-51
2022/12/01 04:31:18;;;;;;;4.03;1.40;;;;;;;;;;1770023;79;21049;-51
2022/12/01 04:33:44;;;;;;;3.23;1.10;;;;;;;;;;1773010;79;21629;-51
2022/12/01 04:36:10;;;;;;;6.77;1.30;;;;;;;;;;1772104;79;21383;-52
2022/12/01 04:38:37;;;;;;;2.33;1.00;;;;;;;;;;1769241;79;21041;-51
2022/12/01 04:41:09;;;;;;;3.80;1.20;;;;;;;;;;1768557;79;21880;-51
2022/12/01 04:43:35;;;;;;;6.40;1.20;;;;;;;;;;1769552;79;21005;-51
2022/12/01 04:46:02;;;;;;;3.03;1.23;;;;;;;;;;1770820;79;21146;-51
2022/12/01 04:48:28;;;;;;;4.83;1.10;;;;;;;;;;1770848;79;21460;-51
2022/12/01 04:50:55;;;;;;;4.17;1.00;;;;;;;;;;1769812;79;21128;-51
2022/12/01 04:53:21;;;;;;;9.00;1.30;;;;;;;;;;1768664;79;22408;-52
2022/12/01 04:55:47;;;;;;;5.60;1.10;;;;;;;;;;1773555;80;21536;-51
2022/12/01 04:58:13;;;;;;;6.47;0.97;;;;;;;;;;1774258;79;21102;-51
2022/12/01 05:00:39;;;;;;;6.10;1.93;;;;;;;;;;1766048;79;21290;-51
2022/12/01 05:03:05;;;;;;;5.07;1.30;;;;;;;;;;1774354;79;21548;-51
2022/12/01 05:05:32;;;;;;;3.43;1.37;;;;;;;;;;1773666;79;21828;-51
2022/12/01 05:07:58;;;;;;;7.20;1.60;;;;;;;;;;1749464;80;21112;-51
2022/12/01 05:10:24;;;;;;;7.23;1.30;;;;;;;;;;1737599;81;21078;-51
2022/12/01 05:12:51;;;;;;;3.57;1.10;;;;;;;;;;1736312;81;21026;-51
2022/12/01 05:15:17;;;;;;;4.80;1.10;;;;;;;;;;1743917;81;21560;-51
2022/12/01 05:17:43;;;;;;;5.27;1.87;;;;;;;;;;1738596;81;21825;-51
2022/12/01 05:22:58;;;;;;;4.50;1.97;;;;;;;;;;1739109;81;21064;-51
2022/12/01 05:25:24;;;;;;;4.17;1.60;;;;;;;;;;1732158;81;21033;-51
2022/12/01 05:27:51;;;;;;;5.70;1.43;;;;;;;;;;1733407;81;21021;-51
2022/12/01 05:30:17;;;;;;;6.93;1.63;;;;;;;;;;1747137;81;21850;-51
2022/12/01 05:32:43;;;;;;;6.90;1.20;;;;;;;;;;1693393;83;21558;-51
2022/12/01 05:35:09;;;;;;;5.83;1.50;;;;;;;;;;1691044;83;21037;-51
2022/12/01 05:37:36;;;;;;;4.93;1.20;;;;;;;;;;1667266;84;21056;-51
2022/12/01 05:40:02;;;;;;;4.77;1.30;;;;;;;;;;1663504;84;21088;-50
2022/12/01 05:42:28;;;;;;;6.50;1.67;;;;;;;;;;1668361;83;21852;-51
2022/12/01 05:44:54;;;;;;;5.03;1.70;;;;;;;;;;1668577;85;21094;-51
2022/12/01 05:47:20;;;;;;;4.60;1.77;;;;;;;;;;1691476;83;21490;-51
2022/12/01 05:49:46;;;;;;;6.47;1.50;;;;;;;;;;1669782;83;21462;-51
2022/12/01 05:52:13;;;;;;;11.23;1.43;;;;;;;;;;1692945;83;21100;-51
2022/12/01 05:54:39;;;;;;;4.83;1.30;;;;;;;;;;1675763;83;21946;-51
2022/12/01 05:57:07;;;;;;;8.10;1.30;;;;;;;;;;1674993;84;21057;-50
2022/12/01 05:59:33;;;;;;;6.63;1.37;;;;;;;;;;1675846;83;21101;-51
2022/12/01 06:01:59;;;;;;;5.33;1.43;;;;;;;;;;1673398;83;21594;-51
2022/12/01 06:04:25;;;;;;;4.57;1.73;;;;;;;;;;1678622;83;21058;-51
2022/12/01 06:06:51;;;;;;;5.20;1.20;;;;;;;;;;1697978;81;22787;-51
2022/12/01 06:09:18;;;;;;;5.03;1.87;;;;;;;;;;1772175;79;21057;-51
2022/12/01 06:11:44;;;;;;;4.47;1.27;;;;;;;;;;1769304;79;21041;-51
2022/12/01 06:14:10;;;;;;;7.30;1.53;;;;;;;;;;1772489;79;21656;-51
2022/12/01 06:16:37;;;;;;;3.30;1.10;;;;;;;;;;1768649;79;21053;-51
2022/12/01 06:19:03;;;;;;;4.43;1.40;;;;;;;;;;1770836;80;22543;-51
2022/12/01 06:21:29;;;;;;;3.60;1.37;;;;;;;;;;1772701;80;21415;-51
2022/12/01 06:23:55;;;;;;;5.60;1.17;;;;;;;;;;1769939;79;21163;-50
2022/12/01 06:26:21;;;;;;;9.20;1.20;;;;;;;;;;1770641;79;21036;-51
2022/12/01 06:28:48;;;;;;;5.77;1.00;;;;;;;;;;1774173;79;21113;-50
2022/12/01 06:31:14;;;;;;;2.37;1.00;;;;;;;;;;1766254;79;21846;-51
2022/12/01 06:33:40;;;;;;;4.90;1.10;;;;;;;;;;1768157;80;21248;-50
2022/12/01 06:36:09;;;;;;;8.63;1.50;;;;;;;;;;1769153;79;21570;-51
2022/12/01 06:38:36;;;;;;;4.37;1.00;;;;;;;;;;1772035;79;21089;-50
2022/12/01 06:41:02;;;;;;;4.97;1.13;;;;;;;;;;1771868;80;21293;-51
2022/12/01 06:43:30;;;;;;;6.63;1.43;;;;;;;;;;1770606;79;21744;-50
2022/12/01 06:45:56;;;;;;;5.47;1.50;;;;;;;;;;1764574;79;21033;-50
2022/12/01 06:48:23;;;;;;;4.27;1.33;;;;;;;;;;1771032;79;21077;-50
2022/12/01 06:50:49;;;;;;;8.17;1.47;;;;;;;;;;1774130;79;21029;-51
2022/12/01 06:53:15;;;;;;;8.53;1.93;;;;;;;;;;1771553;79;21138;-51
2022/12/01 06:55:41;;;;;;;10.63;1.60;;;;;;;;;;1771414;79;21815;-51
2022/12/01 06:58:07;;;;;;;7.33;1.83;;;;;;;;;;1772541;79;21085;-50
2022/12/01 07:00:33;;;;;;;8.63;1.50;;;;;;;;;;1771292;79;21093;-51
2022/12/01 07:02:59;;;;;;;4.33;1.20;;;;;;;;;;1770210;79;21042;-50
2022/12/01 07:05:26;;;;;;;8.40;1.80;;;;;;;;;;1770314;79;21049;-50
2022/12/01 07:07:52;;;;;;;8.17;1.77;;;;;;;;;;1769591;79;21834;-50
2022/12/01 07:10:18;;;;;;;8.17;2.83;;;;;;;;;;1770866;80;21064;-50
2022/12/01 07:12:44;;;;;;;8.40;2.90;;;;;;;;;;1769800;79;21037;-50
2022/12/01 07:15:11;;;;;;;11.77;3.20;;;;;;;;;;1770263;79;21493;-50
2022/12/01 07:17:37;;;;;;;7.50;2.27;;;;;;;;;;1773190;79;21010;-50
2022/12/01 07:20:04;;;;;;;8.87;2.53;;;;;;;;;;1771212;79;21833;-50
2022/12/01 07:22:31;;;;;;;9.53;3.10;;;;;;;;;;1768721;80;21054;-50
2022/12/01 07:24:57;;;;;;;11.83;3.67;;;;;;;;;;1764761;80;21128;-50
2022/12/01 07:27:23;;;;;;;6.87;2.60;;;;;;;;;;1767271;80;21284;-50
2022/12/01 07:29:49;;;;;;;7.77;2.93;;;;;;;;;;1768274;79;21061;-50
2022/12/01 07:32:15;;;;;;;11.10;3.43;;;;;;;;;;1769688;79;21903;-50
2022/12/01 07:34:41;;;;;;;15.13;3.83;;;;;;;;;;1769410;80;21065;-50
2022/12/01 07:37:08;;;;;;;7.20;2.87;;;;;;;;;;1766317;79;22322;-50
2022/12/01 07:39:34;;;;;;;10.33;3.00;;;;;;;;;;1767732;79;21100;-50
2022/12/01 07:42:00;;;;;;;13.03;2.60;;;;;;;;;;1769651;80;21081;-50
2022/12/01 07:44:26;;;;;;;10.30;3.13;;;;;;;;;;1770974;80;21884;-50
2022/12/01 07:46:53;;;;;;;6.80;2.67;;;;;;;;;;1768468;79;21052;-50
2022/12/01 07:49:19;;;;;;;6.83;2.90;;;;;;;;;;1765249;80;21040;-50
2022/12/01 07:51:45;;;;;;;9.53;3.17;;;;;;;;;;1768098;80;21084;-50
2022/12/01 07:54:16;;;;;;;9.83;3.00;;;;;;;;;;1765700;80;21080;-50
2022/12/01 07:56:42;;;;;;;12.93;3.40;;;;;;;;;;1771921;79;23666;-50
2022/12/01 07:59:08;;;;;;;8.33;2.60;;;;;;;;;;1768839;79;21077;-51
2022/12/01 08:01:34;;;;;;;9.53;3.07;;;;;;;;;;1769893;80;21096;-50
2022/12/01 08:04:01;;;;;;;9.93;3.67;;;;;;;;;;1767256;79;21662;-50
2022/12/01 08:06:28;;;;;;;14.90;2.83;;;;;;;;;;1773936;80;22137;-51
2022/12/01 08:08:54;;;;;;;13.10;3.03;;;;;;;;;;1772661;79;21967;-50
2022/12/01 08:11:24;;;;;;;8.87;3.27;;;;;;;;;;1770690;79;21136;-50
2022/12/01 08:13:50;;;;;;;7.90;2.67;;;;;;;;;;1770268;79;21070;-50
2022/12/01 08:16:18;;;;;;;10.93;3.23;;;;;;;;;;1774140;79;21387;-50
2022/12/01 08:18:44;;;;;;;8.07;3.43;;;;;;;;;;1770741;80;21075;-50
2022/12/01 08:21:13;;;;;;;9.00;3.43;;;;;;;;;;1769857;79;21987;-50
2022/12/01 08:23:40;;;;;;;7.57;2.60;;;;;;;;;;1770370;79;21080;-50
2022/12/01 08:26:11;;;;;;;9.50;3.10;;;;;;;;;;1769778;79;21049;-50
2022/12/01 08:28:37;;;;;;;8.37;3.33;;;;;;;;;;1770367;79;21013;-50
2022/12/01 08:31:13;;;;;;;7.50;3.33;;;;;;;;;;1771317;79;21068;-50
2022/12/01 08:33:40;;;;;;;8.37;3.07;;;;;;;;;;1771382;79;21944;-50
2022/12/01 08:36:08;;;;;;;10.37;4.33;;;;;;;;;;1771219;79;21114;-50
2022/12/01 08:38:34;;;;;;;6.93;2.53;;;;;;;;;;1770163;79;21486;-50
2022/12/01 08:41:01;;;;;;;5.90;2.43;;;;;;;;;;1771575;79;21568;-50
2022/12/01 08:43:28;;;;;;;6.50;2.33;;;;;;;;;;1770695;79;21602;-50
2022/12/01 08:45:56;;;;;;;5.10;2.30;;;;;;;;;;1772719;79;21839;-50
2022/12/01 08:48:23;;;;;;;6.53;2.60;;;;;;;;;;1771931;80;21756;-50
2022/12/01 08:50:49;;;;;;;5.57;1.97;;;;;;;;;;1768756;79;21014;-50
2022/12/01 08:53:16;;;;;;;10.10;2.47;;;;;;;;;;1771621;79;21037;-50
2022/12/01 08:55:42;;;;;;;4.03;1.97;;;;;;;;;;1771245;80;21050;-51
2022/12/01 08:58:08;;;;;;;5.73;2.83;;;;;;;;;;1768529;79;22724;-50
2022/12/01 09:00:34;;;;;;;5.03;2.33;;;;;;;;;;1771211;79;21495;-50
2022/12/01 09:03:00;;;;;;;4.37;1.70;;;;;;;;;;1768506;79;21558;-50
2022/12/01 09:05:27;;;;;;;7.73;1.80;;;;;;;;;;1765984;80;21053;-50
2022/12/01 09:08:29;;;;;;;6.27;2.37;;;;;;;;;;1770868;79;21110;-52
2022/12/01 09:10:21;;;;;;;5.10;1.80;;;;;;;;;;1773289;79;21940;-52
2022/12/01 09:12:47;;;;;;;3.67;1.80;;;;;;;;;;1774335;79;21063;-50
2022/12/01 09:15:14;;;;;;;4.90;1.50;;;;;;;;;;1778389;79;21052;-50
2022/12/01 09:17:40;;;;;;;3.77;1.53;;;;;;;;;;1774613;79;21120;-50
2022/12/01 09:20:08;;;;;;;2.00;1.00;;;;;;;;;;1774899;79;21056;-50
2022/12/01 09:22:34;;;;;;;5.10;1.87;;;;;;;;;;1776331;79;21995;-50
2022/12/01 09:25:00;;;;;;;4.50;1.60;;;;;;;;;;1773949;79;21009;-50
2022/12/01 09:29:09;;;;;;;8.43;2.50;;;;;;;;;;1751247;79;27374;-51
2022/12/01 09:31:35;;;;;;;4.33;1.40;;;;;;;;;;1734591;80;21067;-50
2022/12/01 09:34:03;;;;;;;4.00;1.30;;;;;;;;;;1703227;82;22223;-51
2022/12/01 09:36:31;;;;;;;6.87;1.30;;;;;;;;;;1682540;83;21112;-51
2022/12/01 09:38:57;;;;;;;4.50;1.30;;;;;;;;;;1704861;82;21538;-51
2022/12/01 09:41:27;;;;;;;5.67;1.60;;;;;;;;;;1701637;82;21143;-51
2022/12/01 09:43:57;;;;;;;3.23;1.10;;;;;;;;;;1705164;82;21059;-51
2022/12/01 09:46:27;;;;;;;4.77;1.50;;;;;;;;;;1673149;83;21862;-52
2022/12/01 09:48:53;;;;;;;5.57;1.30;;;;;;;;;;1702629;82;20998;-52
2022/12/01 09:51:20;;;;;;;3.27;1.20;;;;;;;;;;1684226;83;21479;-51
2022/12/01 09:53:53;;;;;;;2.70;1.00;;;;;;;;;;1667916;84;21064;-51
2022/12/01 09:56:28;;;;;;;2.97;1.30;;;;;;;;;;1666759;84;21168;-51
2022/12/01 09:58:59;;;;;;;4.07;1.30;;;;;;;;;;1682452;83;22426;-51
2022/12/01 10:01:32;;;;;;;3.87;1.73;;;;;;;;;;1691134;83;21089;-51
2022/12/01 10:04:00;;;;;;;2.30;1.10;;;;;;;;;;1686143;83;21077;-51
2022/12/01 10:06:30;;;;;;;7.37;3.03;;;;;;;;;;1688928;83;21080;-51
2022/12/01 10:09:22;;;;;;;8.47;3.10;;;;;;;;;;1688178;83;21073;-50
2022/12/01 10:11:48;;;;;;;20.27;7.03;;;;;;;;;;1685800;83;21860;-50
2022/12/01 10:14:16;;;;;;;14.57;5.57;;;;;;;;;;1684968;83;21065;-51
2022/12/01 10:17:04;;;;;;;5.50;1.10;;;;;;;;;;1680535;83;21073;-51
2022/12/01 10:19:45;;;;;;;5.53;1.60;;;;;;;;;;1679832;83;21661;-51
2022/12/01 10:22:45;;;;;;;4.33;1.50;;;;;;;;;;1688507;83;21183;-51
2022/12/01 10:25:17;;;;;;;7.53;2.03;;;;;;;;;;1679692;83;21946;-51
2022/12/01 10:27:54;;;;;;;8.87;2.17;;;;;;;;;;1677912;83;21574;-51
2022/12/01 10:30:22;;;;;;;3.40;1.10;;;;;;;;;;1666630;83;21082;-49
2022/12/01 10:33:02;;;;;;;5.47;1.77;;;;;;;;;;1670375;83;21657;-49
2022/12/01 10:35:34;;;;;;;2.37;0.80;;;;;;;;;;1670812;83;21521;-50
2022/12/01 10:37:59;;;;;;;1.20;0.63;;;;;;;;;;1670503;83;22884;-49
2022/12/01 10:40:26;;;;;;;4.27;0.87;;;;;;;;;;1671329;83;21086;-50
2022/12/01 10:42:52;;;;;;;2.07;0.80;;;;;;;;;;1671390;83;21089;-49
2022/12/01 10:45:23;;;;;;;1.57;0.70;;;;;;;;;;1675228;83;21097;-49
2022/12/01 10:48:19;;;;;;;4.13;0.80;;;;;;;;;;1670166;83;21133;-49
2022/12/01 10:50:56;;;;;;;1.97;0.70;;;;;;;;;;1670286;83;21782;-50
2022/12/01 10:53:26;;;;;;;3.63;0.70;;;;;;;;;;1665647;83;21068;-50
2022/12/01 10:56:12;;;;;;;2.17;0.60;;;;;;;;;;1669031;83;21074;-50
2022/12/01 10:58:46;;;;;;;4.10;0.67;;;;;;;;;;1669008;83;21047;-51
2022/12/01 11:01:18;;;;;;;3.47;0.60;;;;;;;;;;1663663;83;21121;-50
2022/12/01 11:03:56;;;;;;;3.30;0.80;;;;;;;;;;1671085;83;21828;-50
2022/12/01 11:06:24;;;;;;;1.53;0.73;;;;;;;;;;1666750;83;21392;-50
2022/12/01 11:08:52;;;;;;;3.50;1.17;;;;;;;;;;1699985;82;21040;-50
2022/12/01 11:11:25;;;;;;;4.33;0.70;;;;;;;;;;1692341;83;21146;-50
2022/12/01 11:13:51;;;;;;;4.60;0.90;;;;;;;;;;1691505;83;21082;-50
2022/12/01 11:16:36;;;;;;;1.53;0.80;;;;;;;;;;1701691;82;21919;-50
2022/12/01 11:19:07;;;;;;;2.40;0.97;;;;;;;;;;1669554;83;21046;-49
2022/12/01 11:21:33;;;;;;;2.50;0.70;;;;;;;;;;1672779;83;21350;-49
2022/12/01 11:25:38;;;;;;;1.20;0.80;;;;;;;;;;1793699;78;27375;-49
2022/12/01 11:28:04;;;;;;;2.70;0.63;;;;;;;;;;1701772;82;21081;-49
2022/12/01 11:30:31;;;;;;;1.10;0.60;;;;;;;;;;1676457;83;21803;-49
2022/12/01 11:32:59;;;;;;;1.73;0.80;;;;;;;;;;1681577;84;21109;-49
2022/12/01 11:35:30;;;;;;;1.67;0.60;;;;;;;;;;1679490;83;21408;-50
2022/12/01 11:37:59;;;;;;;1.80;0.60;;;;;;;;;;1707639;81;21843;-49
2022/12/01 11:40:49;;;;;;;1.90;0.80;;;;;;;;;;1686834;83;21127;-49
2022/12/01 11:43:25;;;;;;;2.07;1.00;;;;;;;;;;1684865;83;21715;-49
2022/12/01 11:45:51;;;;;;;1.23;0.70;;;;;;;;;;1677628;84;21109;-49
2022/12/01 11:48:26;;;;;;;1.73;0.93;;;;;;;;;;1670213;84;21060;-49
2022/12/01 11:51:05;;;;;;;1.67;0.73;;;;;;;;;;1684955;83;21531;-49
2022/12/01 11:53:37;;;;;;;1.47;0.70;;;;;;;;;;1685401;84;21867;-50
2022/12/01 11:56:24;;;;;;;1.47;0.63;;;;;;;;;;1687356;83;21934;-50
2022/12/01 11:58:57;;;;;;;1.00;0.70;;;;;;;;;;1681735;84;21049;-50
2022/12/01 12:01:53;;;;;;;2.13;0.83;;;;;;;;;;1710991;82;21108;-49
2022/12/01 12:04:40;;;;;;;3.10;0.80;;;;;;;;;;1710572;82;21081;-50
2022/12/01 12:07:16;;;;;;;1.33;0.60;;;;;;;;;;1706968;82;22236;-49
2022/12/01 12:09:55;;;;;;;2.00;0.60;;;;;;;;;;1712915;81;21946;-49
2022/12/01 12:12:50;;;;;;;2.43;0.70;;;;;;;;;;1709024;82;21559;-50
2022/12/01 12:15:29;;;;;;;3.33;0.90;;;;;;;;;;1712713;81;21050;-49
2022/12/01 12:17:59;;;;;;;1.30;0.63;;;;;;;;;;1707203;81;21125;-49
2022/12/01 12:20:46;;;;;;;5.57;0.80;;;;;;;;;;1714560;82;21088;-49
2022/12/01 12:23:25;;;;;;;4.43;0.80;;;;;;;;;;1705726;82;21994;-48
2022/12/01 12:26:19;;;;;;;5.83;0.83;;;;;;;;;;1696189;83;21414;-49
2022/12/01 12:29:23;;;;;;;3.53;0.70;;;;;;;;;;1669789;83;21100;-50
2022/12/01 12:32:05;;;;;;;2.37;0.90;;;;;;;;;;1730294;81;21608;-50
2022/12/01 12:34:35;;;;;;;2.07;0.80;;;;;;;;;;1729022;80;21646;-49
2022/12/01 12:37:11;;;;;;;1.87;0.93;;;;;;;;;;1732808;80;21912;-50
2022/12/01 12:40:15;;;;;;;12.80;0.97;;;;;;;;;;1736404;81;21083;-50
2022/12/01 12:43:07;;;;;;;3.33;1.20;;;;;;;;;;1734880;80;21112;-50
2022/12/01 12:45:56;;;;;;;2.03;0.80;;;;;;;;;;1733903;80;21101;-50
2022/12/01 12:48:34;;;;;;;1.63;0.90;;;;;;;;;;1732331;80;21598;-50
2022/12/01 12:51:13;;;;;;;2.03;0.87;;;;;;;;;;1735330;82;21738;-50
2022/12/01 12:53:43;;;;;;;1.40;0.80;;;;;;;;;;1730354;80;21038;-50
2022/12/01 12:56:11;;;;;;;3.47;0.90;;;;;;;;;;1731700;80;21034;-50
2022/12/01 12:58:40;;;;;;;2.10;0.80;;;;;;;;;;1731312;80;21054;-50
2022/12/01 13:01:15;;;;;;;1.90;0.80;;;;;;;;;;1736210;81;21034;-50
2022/12/01 13:03:46;;;;;;;;;;;;;;;;;;1734958;80;21851;-50
2022/12/01 13:06:15;;;;;;;2.47;1.50;;;;;;;;;;1735890;82;20203;-50
2022/12/01 13:08:46;;;;;;;3.10;1.00;;;;;;;;;;1732749;80;21086;-50
2022/12/01 13:11:22;;;;;;;8.10;1.63;;;;;;;;;;1732628;82;21074;-50
2022/12/01 13:13:55;;;;;;;4.63;1.90;;;;;;;;;;1731644;81;21105;-50
2022/12/01 13:16:41;;;;;;;6.93;1.30;;;;;;;;;;1735298;81;21863;-49
2022/12/01 13:19:13;;;;;;;2.90;0.90;;;;;;;;;;1734866;81;21058;-50
2022/12/01 13:21:42;;;;;;;1.60;0.83;;;;;;;;;;1738250;81;21105;-49
2022/12/01 13:24:16;;;;;;;2.13;1.10;;;;;;;;;;1730939;80;21692;-49
2022/12/01 13:26:44;;;;;;;3.45;1.00;;;;;;;;;;1724241;81;21124;-49
2022/12/01 13:29:13;;;;;;;4.33;2.40;;;;;;;;;;1724221;81;21823;-49
2022/12/01 13:31:42;;;;;;;2.47;0.90;;;;;;;;;;1729026;81;21093;-49
2022/12/01 13:34:30;;;;;;;3.73;0.80;;;;;;;;;;1726383;80;21634;-49
2022/12/01 13:36:57;;;;;;;2.40;0.90;;;;;;;;;;1724949;81;21078;-49
2022/12/01 13:39:27;;;;;;;4.23;1.10;;;;;;;;;;1727934;81;21110;-49
2022/12/01 13:41:59;;;;;;;4.80;1.27;;;;;;;;;;1722105;81;21768;-49
2022/12/01 13:44:38;;;;;;;3.70;1.40;;;;;;;;;;1720363;81;21129;-49
2022/12/01 13:47:11;;;;;;;7.20;1.80;;;;;;;;;;1728812;81;21516;-49
2022/12/01 13:49:43;;;;;;;12.60;3.37;;;;;;;;;;1724351;81;21085;-49
2022/12/01 13:52:25;;;;;;;9.70;2.77;;;;;;;;;;1724727;81;21543;-50
2022/12/01 13:55:11;;;;;;;7.73;2.47;;;;;;;;;;1724535;81;21851;-50
2022/12/01 13:57:47;;;;;;;5.23;1.80;;;;;;;;;;1720699;81;22883;-49
2022/12/01 14:00:23;;;;;;;6.07;2.87;;;;;;;;;;1726869;81;21074;-50
2022/12/01 14:03:13;;;;;;;6.80;3.27;;;;;;;;;;1727896;81;21143;-50
2022/12/01 14:05:42;;;;;;;13.07;4.03;;;;;;;;;;1727065;81;21110;-50
2022/12/01 14:08:28;;;;;;;11.83;4.10;;;;;;;;;;1732479;81;21938;-50
2022/12/01 14:10:56;;;;;;;12.67;4.40;;;;;;;;;;1723024;81;21064;-51
2022/12/01 14:13:23;;;;;;;14.27;4.40;;;;;;;;;;1708896;81;21110;-50
2022/12/01 14:15:59;;;;;;;14.07;4.37;;;;;;;;;;1726484;81;21085;-50
2022/12/01 14:18:32;;;;;;;10.27;3.57;;;;;;;;;;1730437;81;21898;-50
2022/12/01 14:20:59;;;;;;;7.37;2.13;;;;;;;;;;1725386;81;21806;-50
2022/12/01 14:23:32;;;;;;;8.73;2.87;;;;;;;;;;1724691;81;21089;-50
2022/12/01 14:26:11;;;;;;;5.70;2.20;;;;;;;;;;1714750;81;21101;-50
2022/12/01 14:30:45;;;;;;;5.87;2.30;;;;;;;;;;1791791;78;28005;-49
2022/12/01 14:33:40;;;;;;;13.93;4.40;;;;;;;;;;1727740;80;22149;-49
2022/12/01 14:36:22;;;;;;;13.20;4.30;;;;;;;;;;1720583;79;21966;-50
2022/12/01 14:38:54;;;;;;;7.70;4.60;;;;;;;;;;1711190;81;21558;-49
2022/12/01 14:41:24;;;;;;;11.03;5.53;;;;;;;;;;1712036;81;22282;-49
2022/12/01 14:44:04;;;;;;;12.90;5.70;;;;;;;;;;1742120;81;21564;-48
2022/12/01 14:46:42;;;;;;;15.37;6.13;;;;;;;;;;1739561;80;21069;-48
2022/12/01 14:49:12;;;;;;;17.90;9.63;;;;;;;;;;1740236;80;21943;-48
2022/12/01 14:51:40;;;;;;;19.47;10.20;;;;;;;;;;1712415;81;21164;-47
2022/12/01 14:54:09;;;;;;;23.60;13.63;;;;;;;;;;1723105;81;21022;-49
2022/12/01 14:56:35;;;;;;;27.87;15.57;;;;;;;;;;1719927;81;21044;-48
2022/12/01 14:59:06;;;;;;;17.20;12.07;;;;;;;;;;1736705;81;21073;-48
2022/12/01 15:01:34;;;;;;;20.07;13.03;;;;;;;;;;1712888;81;21968;-47
2022/12/01 15:04:01;;;;;;;39.23;15.90;;;;;;;;;;1713256;81;21452;-48
2022/12/01 15:06:28;;;;;;;36.03;17.00;;;;;;;;;;1731218;81;21025;-47
2022/12/01 15:09:16;;;;;;;47.50;20.90;;;;;;;;;;1694559;82;21046;-49
2022/12/01 15:11:54;;;;;;;35.87;14.30;;;;;;;;;;1716179;81;21071;-49
2022/12/01 15:14:32;;;;;;;25.90;12.47;;;;;;;;;;1717601;82;21811;-49
2022/12/01 15:16:58;;;;;;;14.30;6.73;;;;;;;;;;1713466;81;21405;-49
2022/12/01 15:19:36;;;;;;;19.00;9.87;;;;;;;;;;1716913;81;21101;-49